sensor_id;sensor_type;location;lat;lon;timestamp;temperature;humidity
45983;DHT22;31711;47.158;7.346;2023-04-03T00:00:16;7.90;99.90
45983;DHT22;31711;47.158;7.346;2023-04-03T00:02:42;8.00;99.90
45983;DHT22;31711;47.158;7.346;2023-04-03T00:05:08;8.00;99.90
45983;DHT22;31711;47.158;7.346;2023-04-03T00:07:35;8.00;99.90
45983;DHT22;31711;47.158;7.346;2023-04-03T00:10:01;8.00;99.90
45983;DHT22;31711;47.158;7.346;2023-04-03T00:12:27;8.10;99.90
45983;DHT22;31711;47.158;7.346;2023-04-03T00:14:53;8.10;99.90
45983;DHT22;31711;47.158;7.346;2023-04-03T00:17:19;8.20;99.90
45983;DHT22;31711;47.158;7.346;2023-04-03T00:19:45;8.20;99.90
45983;DHT22;31711;47.158;7.346;2023-04-03T00:22:11;8.20;99.90
45983;DHT22;31711;47.158;7.346;2023-04-03T00:24:36;8.20;99.90
45983;DHT22;31711;47.158;7.346;2023-04-03T00:27:02;8.20;99.90
45983;DHT22;31711;47.158;7.346;2023-04-03T00:29:28;8.10;99.90
45983;DHT22;31711;47.158;7.346;2023-04-03T00:31:54;8.00;99.90
45983;DHT22;31711;47.158;7.346;2023-04-03T00:34:20;8.00;99.90
45983;DHT22;31711;47.158;7.346;2023-04-03T00:36:46;7.90;99.90
45983;DHT22;31711;47.158;7.346;2023-04-03T00:39:12;7.90;99.90
45983;DHT22;31711;47.158;7.346;2023-04-03T00:41:38;7.90;99.90
45983;DHT22;31711;47.158;7.346;2023-04-03T00:47:04;7.90;99.90
45983;DHT22;31711;47.158;7.346;2023-04-03T00:49:38;7.80;99.90
45983;DHT22;31711;47.158;7.346;2023-04-03T00:52:12;7.80;99.90
45983;DHT22;31711;47.158;7.346;2023-04-03T00:54:41;7.70;99.90
45983;DHT22;31711;47.158;7.346;2023-04-03T00:57:07;7.60;99.90
45983;DHT22;31711;47.158;7.346;2023-04-03T00:59:41;7.60;99.90
45983;DHT22;31711;47.158;7.346;2023-04-03T01:02:09;7.70;99.90
45983;DHT22;31711;47.158;7.346;2023-04-03T01:04:39;7.70;99.90
45983;DHT22;31711;47.158;7.346;2023-04-03T01:07:09;7.60;99.90
45983;DHT22;31711;47.158;7.346;2023-04-03T01:09:36;7.60;99.90
45983;DHT22;31711;47.158;7.346;2023-04-03T01:12:25;7.50;99.90
45983;DHT22;31711;47.158;7.346;2023-04-03T01:14:57;7.40;99.90
45983;DHT22;31711;47.158;7.346;2023-04-03T01:25:42;7.30;99.90
45983;DHT22;31711;47.158;7.346;2023-04-03T01:28:23;7.40;99.90
45983;DHT22;31711;47.158;7.346;2023-04-03T01:33:35;7.40;99.90
45983;DHT22;31711;47.158;7.346;2023-04-03T01:36:01;7.40;99.90
45983;DHT22;31711;47.158;7.346;2023-04-03T01:38:27;7.40;99.90
45983;DHT22;31711;47.158;7.346;2023-04-03T01:40:53;7.50;99.90
45983;DHT22;31711;47.158;7.346;2023-04-03T01:43:19;7.50;99.90
45983;DHT22;31711;47.158;7.346;2023-04-03T01:45:45;7.50;99.90
45983;DHT22;31711;47.158;7.346;2023-04-03T01:48:13;7.50;99.90
45983;DHT22;31711;47.158;7.346;2023-04-03T01:50:39;7.60;99.90
45983;DHT22;31711;47.158;7.346;2023-04-03T01:53:05;7.40;99.90
45983;DHT22;31711;47.158;7.346;2023-04-03T01:55:31;7.30;99.90
45983;DHT22;31711;47.158;7.346;2023-04-03T01:57:57;7.30;99.90
45983;DHT22;31711;47.158;7.346;2023-04-03T02:00:23;7.30;99.90
45983;DHT22;31711;47.158;7.346;2023-04-03T02:02:49;7.40;99.90
45983;DHT22;31711;47.158;7.346;2023-04-03T02:05:15;7.30;99.90
45983;DHT22;31711;47.158;7.346;2023-04-03T02:07:41;7.30;99.90
45983;DHT22;31711;47.158;7.346;2023-04-03T02:10:07;7.20;99.90
45983;DHT22;31711;47.158;7.346;2023-04-03T02:12:33;7.20;99.90
45983;DHT22;31711;47.158;7.346;2023-04-03T02:14:59;7.20;99.90
45983;DHT22;31711;47.158;7.346;2023-04-03T02:17:26;7.20;99.90
45983;DHT22;31711;47.158;7.346;2023-04-03T02:19:52;7.20;99.90
45983;DHT22;31711;47.158;7.346;2023-04-03T02:22:18;7.20;99.90
45983;DHT22;31711;47.158;7.346;2023-04-03T02:24:44;7.10;99.90
45983;DHT22;31711;47.158;7.346;2023-04-03T02:27:11;7.00;99.90
45983;DHT22;31711;47.158;7.346;2023-04-03T02:29:37;7.00;99.90
45983;DHT22;31711;47.158;7.346;2023-04-03T02:32:03;6.90;99.90
45983;DHT22;31711;47.158;7.346;2023-04-03T02:34:29;6.80;99.90
45983;DHT22;31711;47.158;7.346;2023-04-03T02:36:55;6.70;99.90
45983;DHT22;31711;47.158;7.346;2023-04-03T02:39:21;6.60;99.90
45983;DHT22;31711;47.158;7.346;2023-04-03T02:41:47;6.50;99.90
45983;DHT22;31711;47.158;7.346;2023-04-03T02:44:14;6.50;99.90
45983;DHT22;31711;47.158;7.346;2023-04-03T02:46:40;6.50;99.90
45983;DHT22;31711;47.158;7.346;2023-04-03T02:49:06;6.50;99.90
45983;DHT22;31711;47.158;7.346;2023-04-03T02:51:32;6.50;99.90
45983;DHT22;31711;47.158;7.346;2023-04-03T02:54:00;6.50;99.90
45983;DHT22;31711;47.158;7.346;2023-04-03T02:56:27;6.50;99.90
45983;DHT22;31711;47.158;7.346;2023-04-03T02:58:53;6.50;99.90
45983;DHT22;31711;47.158;7.346;2023-04-03T03:01:19;6.50;99.90
45983;DHT22;31711;47.158;7.346;2023-04-03T03:03:45;6.50;99.90
45983;DHT22;31711;47.158;7.346;2023-04-03T03:06:16;6.50;99.90
45983;DHT22;31711;47.158;7.346;2023-04-03T03:08:42;6.40;99.90
45983;DHT22;31711;47.158;7.346;2023-04-03T03:11:10;6.40;99.90
45983;DHT22;31711;47.158;7.346;2023-04-03T03:13:36;6.40;99.90
45983;DHT22;31711;47.158;7.346;2023-04-03T03:16:02;6.30;99.90
45983;DHT22;31711;47.158;7.346;2023-04-03T03:18:29;6.30;99.90
45983;DHT22;31711;47.158;7.346;2023-04-03T03:20:58;6.30;99.90
45983;DHT22;31711;47.158;7.346;2023-04-03T03:23:26;6.20;99.90
45983;DHT22;31711;47.158;7.346;2023-04-03T03:26:04;6.20;99.90
45983;DHT22;31711;47.158;7.346;2023-04-03T03:28:31;6.20;99.90
45983;DHT22;31711;47.158;7.346;2023-04-03T03:30:58;6.10;99.90
45983;DHT22;31711;47.158;7.346;2023-04-03T03:33:24;6.10;99.90
45983;DHT22;31711;47.158;7.346;2023-04-03T03:35:52;6.10;99.90
45983;DHT22;31711;47.158;7.346;2023-04-03T03:38:18;6.10;99.90
45983;DHT22;31711;47.158;7.346;2023-04-03T03:40:44;6.10;99.90
45983;DHT22;31711;47.158;7.346;2023-04-03T03:43:10;6.10;99.90
45983;DHT22;31711;47.158;7.346;2023-04-03T03:45:36;6.10;99.90
45983;DHT22;31711;47.158;7.346;2023-04-03T03:48:03;6.10;99.90
45983;DHT22;31711;47.158;7.346;2023-04-03T03:50:29;6.10;99.90
45983;DHT22;31711;47.158;7.346;2023-04-03T03:52:55;6.10;99.90
45983;DHT22;31711;47.158;7.346;2023-04-03T03:55:21;6.10;99.90
45983;DHT22;31711;47.158;7.346;2023-04-03T03:57:47;6.10;99.90
45983;DHT22;31711;47.158;7.346;2023-04-03T04:00:15;6.10;99.90
45983;DHT22;31711;47.158;7.346;2023-04-03T04:02:42;6.10;99.90
45983;DHT22;31711;47.158;7.346;2023-04-03T04:05:08;6.10;99.90
45983;DHT22;31711;47.158;7.346;2023-04-03T04:07:34;6.00;99.90
45983;DHT22;31711;47.158;7.346;2023-04-03T04:10:00;6.00;99.90
45983;DHT22;31711;47.158;7.346;2023-04-03T04:12:26;5.90;99.90
45983;DHT22;31711;47.158;7.346;2023-04-03T04:14:52;5.90;99.90
45983;DHT22;31711;47.158;7.346;2023-04-03T04:17:18;5.80;99.90
45983;DHT22;31711;47.158;7.346;2023-04-03T04:19:44;5.70;99.90
45983;DHT22;31711;47.158;7.346;2023-04-03T04:22:10;5.60;99.90
45983;DHT22;31711;47.158;7.346;2023-04-03T04:24:36;5.50;99.90
45983;DHT22;31711;47.158;7.346;2023-04-03T04:27:02;5.60;99.90
45983;DHT22;31711;47.158;7.346;2023-04-03T04:29:28;5.60;99.90
45983;DHT22;31711;47.158;7.346;2023-04-03T04:31:54;5.60;99.90
45983;DHT22;31711;47.158;7.346;2023-04-03T04:34:20;5.50;99.90
45983;DHT22;31711;47.158;7.346;2023-04-03T04:36:46;5.50;99.90
45983;DHT22;31711;47.158;7.346;2023-04-03T04:39:12;5.40;99.90
45983;DHT22;31711;47.158;7.346;2023-04-03T04:41:41;5.40;99.90
45983;DHT22;31711;47.158;7.346;2023-04-03T04:44:07;5.40;99.90
45983;DHT22;31711;47.158;7.346;2023-04-03T04:46:33;5.30;99.90
45983;DHT22;31711;47.158;7.346;2023-04-03T04:48:59;5.20;99.90
45983;DHT22;31711;47.158;7.346;2023-04-03T04:51:25;5.20;99.90
45983;DHT22;31711;47.158;7.346;2023-04-03T04:53:51;5.10;99.90
45983;DHT22;31711;47.158;7.346;2023-04-03T04:56:17;5.10;99.90
45983;DHT22;31711;47.158;7.346;2023-04-03T04:58:43;5.10;99.90
45983;DHT22;31711;47.158;7.346;2023-04-03T05:01:10;5.10;99.90
45983;DHT22;31711;47.158;7.346;2023-04-03T05:03:36;5.10;99.90
45983;DHT22;31711;47.158;7.346;2023-04-03T05:06:03;5.10;99.90
45983;DHT22;31711;47.158;7.346;2023-04-03T05:08:29;5.10;99.90
45983;DHT22;31711;47.158;7.346;2023-04-03T05:10:55;5.00;99.90
45983;DHT22;31711;47.158;7.346;2023-04-03T05:13:21;5.00;99.90
45983;DHT22;31711;47.158;7.346;2023-04-03T05:15:47;5.00;99.90
45983;DHT22;31711;47.158;7.346;2023-04-03T05:18:13;5.00;99.90
45983;DHT22;31711;47.158;7.346;2023-04-03T05:20:39;5.00;99.90
45983;DHT22;31711;47.158;7.346;2023-04-03T05:23:05;5.00;99.90
45983;DHT22;31711;47.158;7.346;2023-04-03T05:25:31;5.00;99.90
45983;DHT22;31711;47.158;7.346;2023-04-03T05:27:58;5.00;99.90
45983;DHT22;31711;47.158;7.346;2023-04-03T05:30:24;5.00;99.90
45983;DHT22;31711;47.158;7.346;2023-04-03T05:32:50;4.90;99.90
45983;DHT22;31711;47.158;7.346;2023-04-03T05:35:16;4.90;99.90
45983;DHT22;31711;47.158;7.346;2023-04-03T05:37:42;4.90;99.90
45983;DHT22;31711;47.158;7.346;2023-04-03T05:40:08;4.90;99.90
45983;DHT22;31711;47.158;7.346;2023-04-03T05:42:34;4.90;99.90
45983;DHT22;31711;47.158;7.346;2023-04-03T05:45:00;4.90;99.90
45983;DHT22;31711;47.158;7.346;2023-04-03T05:47:26;4.90;99.90
45983;DHT22;31711;47.158;7.346;2023-04-03T05:49:52;4.90;99.90
45983;DHT22;31711;47.158;7.346;2023-04-03T05:52:25;4.90;99.90
45983;DHT22;31711;47.158;7.346;2023-04-03T05:54:52;4.90;99.90
45983;DHT22;31711;47.158;7.346;2023-04-03T05:57:18;5.00;99.90
45983;DHT22;31711;47.158;7.346;2023-04-03T05:59:45;4.90;99.90
45983;DHT22;31711;47.158;7.346;2023-04-03T06:02:13;4.90;99.90
45983;DHT22;31711;47.158;7.346;2023-04-03T06:04:40;4.90;99.90
45983;DHT22;31711;47.158;7.346;2023-04-03T06:07:06;5.00;99.90
45983;DHT22;31711;47.158;7.346;2023-04-03T06:09:33;5.00;99.90
45983;DHT22;31711;47.158;7.346;2023-04-03T06:12:00;5.00;99.90
45983;DHT22;31711;47.158;7.346;2023-04-03T06:14:26;5.00;99.90
45983;DHT22;31711;47.158;7.346;2023-04-03T06:16:53;5.00;99.90
45983;DHT22;31711;47.158;7.346;2023-04-03T06:19:20;5.10;99.90
45983;DHT22;31711;47.158;7.346;2023-04-03T06:21:46;5.00;99.90
45983;DHT22;31711;47.158;7.346;2023-04-03T06:24:16;5.00;99.90
45983;DHT22;31711;47.158;7.346;2023-04-03T06:26:42;5.00;99.90
45983;DHT22;31711;47.158;7.346;2023-04-03T06:29:09;5.10;99.90
45983;DHT22;31711;47.158;7.346;2023-04-03T06:31:35;5.10;99.90
45983;DHT22;31711;47.158;7.346;2023-04-03T06:34:03;5.20;99.90
45983;DHT22;31711;47.158;7.346;2023-04-03T06:36:29;5.20;99.90
45983;DHT22;31711;47.158;7.346;2023-04-03T06:38:55;5.20;99.90
45983;DHT22;31711;47.158;7.346;2023-04-03T06:41:21;5.20;99.90
45983;DHT22;31711;47.158;7.346;2023-04-03T06:43:47;5.20;99.90
45983;DHT22;31711;47.158;7.346;2023-04-03T06:46:18;5.20;99.90
45983;DHT22;31711;47.158;7.346;2023-04-03T06:48:45;5.20;99.90
45983;DHT22;31711;47.158;7.346;2023-04-03T06:51:22;5.20;99.90
45983;DHT22;31711;47.158;7.346;2023-04-03T06:53:49;5.20;99.90
45983;DHT22;31711;47.158;7.346;2023-04-03T06:56:16;5.20;99.90
45983;DHT22;31711;47.158;7.346;2023-04-03T06:58:43;5.30;99.90
45983;DHT22;31711;47.158;7.346;2023-04-03T07:01:11;5.30;99.90
45983;DHT22;31711;47.158;7.346;2023-04-03T07:03:38;5.40;99.90
45983;DHT22;31711;47.158;7.346;2023-04-03T07:06:05;5.40;99.90
45983;DHT22;31711;47.158;7.346;2023-04-03T07:08:33;5.30;99.90
45983;DHT22;31711;47.158;7.346;2023-04-03T07:10:59;5.40;99.90
45983;DHT22;31711;47.158;7.346;2023-04-03T07:13:25;5.30;99.90
45983;DHT22;31711;47.158;7.346;2023-04-03T07:15:52;5.40;99.90
45983;DHT22;31711;47.158;7.346;2023-04-03T07:18:18;5.30;99.90
45983;DHT22;31711;47.158;7.346;2023-04-03T07:20:44;5.20;99.90
45983;DHT22;31711;47.158;7.346;2023-04-03T07:23:11;5.30;99.90
45983;DHT22;31711;47.158;7.346;2023-04-03T07:25:41;5.30;99.90
45983;DHT22;31711;47.158;7.346;2023-04-03T07:28:08;5.30;99.90
45983;DHT22;31711;47.158;7.346;2023-04-03T07:30:34;5.30;99.90
45983;DHT22;31711;47.158;7.346;2023-04-03T07:33:00;5.30;99.90
45983;DHT22;31711;47.158;7.346;2023-04-03T07:35:26;5.30;99.90
45983;DHT22;31711;47.158;7.346;2023-04-03T07:37:52;5.30;99.90
45983;DHT22;31711;47.158;7.346;2023-04-03T07:40:19;5.30;99.90
45983;DHT22;31711;47.158;7.346;2023-04-03T07:42:44;5.40;99.90
45983;DHT22;31711;47.158;7.346;2023-04-03T07:45:11;5.30;99.90
45983;DHT22;31711;47.158;7.346;2023-04-03T07:47:37;5.40;99.90
45983;DHT22;31711;47.158;7.346;2023-04-03T07:50:03;5.20;99.90
45983;DHT22;31711;47.158;7.346;2023-04-03T07:52:29;5.30;99.90
45983;DHT22;31711;47.158;7.346;2023-04-03T07:54:55;5.40;99.90
45983;DHT22;31711;47.158;7.346;2023-04-03T07:57:21;5.20;99.90
45983;DHT22;31711;47.158;7.346;2023-04-03T07:59:47;5.20;99.90
45983;DHT22;31711;47.158;7.346;2023-04-03T08:02:13;5.20;99.90
45983;DHT22;31711;47.158;7.346;2023-04-03T08:04:38;5.30;99.90
45983;DHT22;31711;47.158;7.346;2023-04-03T08:07:05;5.30;99.90
45983;DHT22;31711;47.158;7.346;2023-04-03T08:09:31;5.30;99.90
45983;DHT22;31711;47.158;7.346;2023-04-03T08:11:58;5.40;99.90
45983;DHT22;31711;47.158;7.346;2023-04-03T08:14:24;5.30;99.90
45983;DHT22;31711;47.158;7.346;2023-04-03T08:16:50;5.30;99.90
45983;DHT22;31711;47.158;7.346;2023-04-03T08:19:16;5.40;99.90
45983;DHT22;31711;47.158;7.346;2023-04-03T08:21:44;5.30;99.90
45983;DHT22;31711;47.158;7.346;2023-04-03T08:24:10;5.20;99.90
45983;DHT22;31711;47.158;7.346;2023-04-03T08:26:36;5.30;99.90
45983;DHT22;31711;47.158;7.346;2023-04-03T08:29:03;5.30;99.90
45983;DHT22;31711;47.158;7.346;2023-04-03T08:31:29;5.20;99.90
45983;DHT22;31711;47.158;7.346;2023-04-03T08:33:57;5.20;99.90
45983;DHT22;31711;47.158;7.346;2023-04-03T08:36:26;5.30;99.90
45983;DHT22;31711;47.158;7.346;2023-04-03T08:38:53;5.20;99.90
45983;DHT22;31711;47.158;7.346;2023-04-03T08:49:28;5.70;99.90
45983;DHT22;31711;47.158;7.346;2023-04-03T08:51:56;5.70;99.90
45983;DHT22;31711;47.158;7.346;2023-04-03T08:57:16;5.50;99.90
45983;DHT22;31711;47.158;7.346;2023-04-03T08:59:43;5.60;99.90
45983;DHT22;31711;47.158;7.346;2023-04-03T09:02:42;5.60;99.90
45983;DHT22;31711;47.158;7.346;2023-04-03T09:05:40;6.00;99.90
45983;DHT22;31711;47.158;7.346;2023-04-03T09:08:25;5.80;99.90
45983;DHT22;31711;47.158;7.346;2023-04-03T09:16:59;5.60;99.90
45983;DHT22;31711;47.158;7.346;2023-04-03T09:22:07;5.60;99.90
45983;DHT22;31711;47.158;7.346;2023-04-03T09:24:35;5.50;99.90
45983;DHT22;31711;47.158;7.346;2023-04-03T09:27:10;5.50;99.90
45983;DHT22;31711;47.158;7.346;2023-04-03T09:29:43;5.50;99.90
45983;DHT22;31711;47.158;7.346;2023-04-03T09:34:49;5.50;99.90
45983;DHT22;31711;47.158;7.346;2023-04-03T09:37:39;5.60;99.90
45983;DHT22;31711;47.158;7.346;2023-04-03T09:40:12;5.90;99.90
45983;DHT22;31711;47.158;7.346;2023-04-03T09:43:28;6.10;99.90
45983;DHT22;31711;47.158;7.346;2023-04-03T09:45:55;6.10;99.90
45983;DHT22;31711;47.158;7.346;2023-04-03T09:48:24;6.40;99.90
45983;DHT22;31711;47.158;7.346;2023-04-03T09:56:01;7.10;99.90
45983;DHT22;31711;47.158;7.346;2023-04-03T09:58:31;7.30;99.90
45983;DHT22;31711;47.158;7.346;2023-04-03T10:01:00;7.00;99.90
45983;DHT22;31711;47.158;7.346;2023-04-03T10:03:31;7.10;99.90
45983;DHT22;31711;47.158;7.346;2023-04-03T10:05:58;7.20;99.90
45983;DHT22;31711;47.158;7.346;2023-04-03T10:08:30;7.40;99.90
45983;DHT22;31711;47.158;7.346;2023-04-03T10:11:15;7.40;99.90
45983;DHT22;31711;47.158;7.346;2023-04-03T10:16:47;7.40;99.90
45983;DHT22;31711;47.158;7.346;2023-04-03T10:19:42;7.70;99.90
45983;DHT22;31711;47.158;7.346;2023-04-03T10:28:04;8.30;99.90
45983;DHT22;31711;47.158;7.346;2023-04-03T10:44:32;8.30;99.90
45983;DHT22;31711;47.158;7.346;2023-04-03T10:47:22;8.20;99.90
45983;DHT22;31711;47.158;7.346;2023-04-03T10:50:52;8.10;99.90
45983;DHT22;31711;47.158;7.346;2023-04-03T10:58:44;7.50;99.90
45983;DHT22;31711;47.158;7.346;2023-04-03T11:01:18;7.60;99.90
45983;DHT22;31711;47.158;7.346;2023-04-03T11:03:50;7.60;99.90
45983;DHT22;31711;47.158;7.346;2023-04-03T11:06:19;7.80;99.90
45983;DHT22;31711;47.158;7.346;2023-04-03T11:09:03;7.90;99.90
45983;DHT22;31711;47.158;7.346;2023-04-03T11:11:37;7.70;99.90
45983;DHT22;31711;47.158;7.346;2023-04-03T11:16:47;8.00;99.90
45983;DHT22;31711;47.158;7.346;2023-04-03T11:19:26;8.10;99.90
45983;DHT22;31711;47.158;7.346;2023-04-03T11:22:17;8.00;99.90
45983;DHT22;31711;47.158;7.346;2023-04-03T11:24:57;8.10;99.90
45983;DHT22;31711;47.158;7.346;2023-04-03T11:27:25;8.40;99.90
45983;DHT22;31711;47.158;7.346;2023-04-03T11:29:53;8.50;99.90
45983;DHT22;31711;47.158;7.346;2023-04-03T11:35:02;8.50;99.90
45983;DHT22;31711;47.158;7.346;2023-04-03T11:37:43;8.30;99.90
45983;DHT22;31711;47.158;7.346;2023-04-03T11:43:06;8.80;99.90
45983;DHT22;31711;47.158;7.346;2023-04-03T11:45:34;8.60;99.90
45983;DHT22;31711;47.158;7.346;2023-04-03T11:48:04;9.10;99.90
45983;DHT22;31711;47.158;7.346;2023-04-03T11:50:45;9.00;99.90
45983;DHT22;31711;47.158;7.346;2023-04-03T12:08:46;8.90;99.90
45983;DHT22;31711;47.158;7.346;2023-04-03T12:19:01;9.30;99.90
45983;DHT22;31711;47.158;7.346;2023-04-03T12:24:37;9.30;99.90
45983;DHT22;31711;47.158;7.346;2023-04-03T12:30:22;9.40;99.90
45983;DHT22;31711;47.158;7.346;2023-04-03T12:38:47;8.70;99.90
45983;DHT22;31711;47.158;7.346;2023-04-03T12:41:53;9.00;99.90
45983;DHT22;31711;47.158;7.346;2023-04-03T12:47:23;9.00;99.90
45983;DHT22;31711;47.158;7.346;2023-04-03T12:49:52;8.80;99.90
45983;DHT22;31711;47.158;7.346;2023-04-03T12:54:55;8.70;99.90
45983;DHT22;31711;47.158;7.346;2023-04-03T12:57:25;8.90;99.90
45983;DHT22;31711;47.158;7.346;2023-04-03T12:59:52;8.70;99.90
45983;DHT22;31711;47.158;7.346;2023-04-03T13:02:27;8.90;99.90
45983;DHT22;31711;47.158;7.346;2023-04-03T13:04:57;9.00;99.90
45983;DHT22;31711;47.158;7.346;2023-04-03T13:07:25;8.90;99.90
45983;DHT22;31711;47.158;7.346;2023-04-03T13:10:18;8.60;99.90
45983;DHT22;31711;47.158;7.346;2023-04-03T13:15:29;8.80;99.90
45983;DHT22;31711;47.158;7.346;2023-04-03T13:17:56;8.40;99.90
45983;DHT22;31711;47.158;7.346;2023-04-03T13:20:31;7.90;99.90
45983;DHT22;31711;47.158;7.346;2023-04-03T13:23:07;8.30;99.90
45983;DHT22;31711;47.158;7.346;2023-04-03T13:25:36;8.40;99.90
45983;DHT22;31711;47.158;7.346;2023-04-03T13:28:05;8.60;99.90
45983;DHT22;31711;47.158;7.346;2023-04-03T13:30:35;8.60;99.90
45983;DHT22;31711;47.158;7.346;2023-04-03T13:33:24;8.50;99.90
45983;DHT22;31711;47.158;7.346;2023-04-03T13:36:23;8.80;99.90
45983;DHT22;31711;47.158;7.346;2023-04-03T13:39:03;8.90;99.90
45983;DHT22;31711;47.158;7.346;2023-04-03T13:41:38;8.20;99.90
45983;DHT22;31711;47.158;7.346;2023-04-03T13:46:51;8.60;99.90
45983;DHT22;31711;47.158;7.346;2023-04-03T13:49:41;8.50;99.90
45983;DHT22;31711;47.158;7.346;2023-04-03T14:03:00;8.90;99.70
45983;DHT22;31711;47.158;7.346;2023-04-03T14:05:26;8.50;99.40
45983;DHT22;31711;47.158;7.346;2023-04-03T14:07:55;8.50;99.20
45983;DHT22;31711;47.158;7.346;2023-04-03T14:10:21;8.40;99.90
45983;DHT22;31711;47.158;7.346;2023-04-03T14:12:48;8.50;99.90
45983;DHT22;31711;47.158;7.346;2023-04-03T14:15:26;8.60;99.90
45983;DHT22;31711;47.158;7.346;2023-04-03T14:17:53;8.20;99.90
45983;DHT22;31711;47.158;7.346;2023-04-03T14:20:22;8.30;99.90
45983;DHT22;31711;47.158;7.346;2023-04-03T14:22:48;8.40;99.90
45983;DHT22;31711;47.158;7.346;2023-04-03T14:25:15;8.20;99.90
45983;DHT22;31711;47.158;7.346;2023-04-03T14:27:45;8.30;99.90
45983;DHT22;31711;47.158;7.346;2023-04-03T14:30:30;8.30;99.90
45983;DHT22;31711;47.158;7.346;2023-04-03T14:32:57;8.00;99.90
45983;DHT22;31711;47.158;7.346;2023-04-03T14:35:24;8.10;99.90
45983;DHT22;31711;47.158;7.346;2023-04-03T14:37:51;7.80;99.90
45983;DHT22;31711;47.158;7.346;2023-04-03T14:40:22;7.90;99.90
45983;DHT22;31711;47.158;7.346;2023-04-03T14:42:49;7.70;99.90
45983;DHT22;31711;47.158;7.346;2023-04-03T14:45:16;7.80;99.90
45983;DHT22;31711;47.158;7.346;2023-04-03T14:47:53;7.80;99.90
45983;DHT22;31711;47.158;7.346;2023-04-03T14:50:22;8.00;99.90
45983;DHT22;31711;47.158;7.346;2023-04-03T14:52:50;7.80;99.90
45983;DHT22;31711;47.158;7.346;2023-04-03T14:55:19;7.80;99.90
45983;DHT22;31711;47.158;7.346;2023-04-03T14:57:45;7.80;99.90
45983;DHT22;31711;47.158;7.346;2023-04-03T15:00:17;7.60;99.90
45983;DHT22;31711;47.158;7.346;2023-04-03T15:02:43;7.50;99.90
45983;DHT22;31711;47.158;7.346;2023-04-03T15:05:11;7.50;99.90
45983;DHT22;31711;47.158;7.346;2023-04-03T15:07:57;7.70;99.90
45983;DHT22;31711;47.158;7.346;2023-04-03T15:10:30;7.50;99.50
45983;DHT22;31711;47.158;7.346;2023-04-03T15:12:57;7.60;99.90
45983;DHT22;31711;47.158;7.346;2023-04-03T15:15:23;7.50;99.90
45983;DHT22;31711;47.158;7.346;2023-04-03T15:17:54;7.60;99.90
45983;DHT22;31711;47.158;7.346;2023-04-03T15:20:24;7.60;99.90
45983;DHT22;31711;47.158;7.346;2023-04-03T15:22:51;7.50;99.90
45983;DHT22;31711;47.158;7.346;2023-04-03T15:25:17;7.50;99.90
45983;DHT22;31711;47.158;7.346;2023-04-03T15:27:44;7.40;99.90
45983;DHT22;31711;47.158;7.346;2023-04-03T15:30:18;7.30;99.90
45983;DHT22;31711;47.158;7.346;2023-04-03T15:32:44;7.20;99.90
45983;DHT22;31711;47.158;7.346;2023-04-03T15:35:10;7.20;99.90
45983;DHT22;31711;47.158;7.346;2023-04-03T15:37:36;7.20;99.90
45983;DHT22;31711;47.158;7.346;2023-04-03T15:40:04;7.20;99.90
45983;DHT22;31711;47.158;7.346;2023-04-03T15:42:30;7.00;99.90
45983;DHT22;31711;47.158;7.346;2023-04-03T15:44:56;7.00;99.90
45983;DHT22;31711;47.158;7.346;2023-04-03T15:47:22;7.10;99.90
45983;DHT22;31711;47.158;7.346;2023-04-03T15:49:48;7.10;99.90
45983;DHT22;31711;47.158;7.346;2023-04-03T15:52:14;7.00;99.90
45983;DHT22;31711;47.158;7.346;2023-04-03T15:54:40;7.00;99.90
45983;DHT22;31711;47.158;7.346;2023-04-03T15:57:06;6.90;99.90
45983;DHT22;31711;47.158;7.346;2023-04-03T15:59:32;6.90;99.90
45983;DHT22;31711;47.158;7.346;2023-04-03T16:01:58;6.90;99.90
45983;DHT22;31711;47.158;7.346;2023-04-03T16:04:26;6.80;99.90
45983;DHT22;31711;47.158;7.346;2023-04-03T16:06:52;6.80;99.90
45983;DHT22;31711;47.158;7.346;2023-04-03T16:09:18;6.70;99.90
45983;DHT22;31711;47.158;7.346;2023-04-03T16:11:44;6.60;99.90
45983;DHT22;31711;47.158;7.346;2023-04-03T16:14:10;6.70;99.90
45983;DHT22;31711;47.158;7.346;2023-04-03T16:16:37;6.70;99.90
45983;DHT22;31711;47.158;7.346;2023-04-03T16:19:04;6.70;99.90
45983;DHT22;31711;47.158;7.346;2023-04-03T16:21:32;6.60;99.90
45983;DHT22;31711;47.158;7.346;2023-04-03T16:23:59;6.60;99.90
45983;DHT22;31711;47.158;7.346;2023-04-03T16:26:25;6.60;99.90
45983;DHT22;31711;47.158;7.346;2023-04-03T16:28:52;6.60;99.90
45983;DHT22;31711;47.158;7.346;2023-04-03T16:31:19;6.60;99.90
45983;DHT22;31711;47.158;7.346;2023-04-03T16:33:45;6.60;99.90
45983;DHT22;31711;47.158;7.346;2023-04-03T16:36:11;6.70;99.90
45983;DHT22;31711;47.158;7.346;2023-04-03T16:38:37;6.60;99.90
45983;DHT22;31711;47.158;7.346;2023-04-03T16:41:03;6.70;99.90
45983;DHT22;31711;47.158;7.346;2023-04-03T16:43:31;6.60;99.90
45983;DHT22;31711;47.158;7.346;2023-04-03T16:45:58;6.70;99.90
45983;DHT22;31711;47.158;7.346;2023-04-03T16:48:24;6.60;99.90
45983;DHT22;31711;47.158;7.346;2023-04-03T16:50:50;6.60;99.90
45983;DHT22;31711;47.158;7.346;2023-04-03T16:53:22;6.60;99.90
45983;DHT22;31711;47.158;7.346;2023-04-03T16:55:49;6.60;99.90
45983;DHT22;31711;47.158;7.346;2023-04-03T16:58:16;6.60;99.90
45983;DHT22;31711;47.158;7.346;2023-04-03T17:00:42;6.50;99.90
45983;DHT22;31711;47.158;7.346;2023-04-03T17:03:09;6.50;99.90
45983;DHT22;31711;47.158;7.346;2023-04-03T17:05:35;6.50;99.90
45983;DHT22;31711;47.158;7.346;2023-04-03T17:08:01;6.50;99.90
45983;DHT22;31711;47.158;7.346;2023-04-03T17:10:28;6.50;99.90
45983;DHT22;31711;47.158;7.346;2023-04-03T17:12:54;6.50;99.90
45983;DHT22;31711;47.158;7.346;2023-04-03T17:15:20;6.50;99.90
45983;DHT22;31711;47.158;7.346;2023-04-03T17:17:51;6.40;99.90
45983;DHT22;31711;47.158;7.346;2023-04-03T17:20:17;6.40;99.90
45983;DHT22;31711;47.158;7.346;2023-04-03T17:22:44;6.40;99.90
45983;DHT22;31711;47.158;7.346;2023-04-03T17:25:10;6.30;99.90
45983;DHT22;31711;47.158;7.346;2023-04-03T17:27:37;6.30;99.90
45983;DHT22;31711;47.158;7.346;2023-04-03T17:30:04;6.30;99.90
45983;DHT22;31711;47.158;7.346;2023-04-03T17:32:30;6.30;99.90
45983;DHT22;31711;47.158;7.346;2023-04-03T17:34:56;6.20;99.90
45983;DHT22;31711;47.158;7.346;2023-04-03T17:37:23;6.20;99.90
45983;DHT22;31711;47.158;7.346;2023-04-03T17:39:49;6.20;99.90
45983;DHT22;31711;47.158;7.346;2023-04-03T17:42:15;6.20;99.90
45983;DHT22;31711;47.158;7.346;2023-04-03T17:44:41;6.10;99.90
45983;DHT22;31711;47.158;7.346;2023-04-03T17:47:07;6.10;99.90
45983;DHT22;31711;47.158;7.346;2023-04-03T17:49:33;6.10;99.90
45983;DHT22;31711;47.158;7.346;2023-04-03T17:51:59;6.10;99.90
45983;DHT22;31711;47.158;7.346;2023-04-03T17:54:25;6.00;99.90
45983;DHT22;31711;47.158;7.346;2023-04-03T17:56:51;6.00;99.90
45983;DHT22;31711;47.158;7.346;2023-04-03T17:59:17;5.90;99.90
45983;DHT22;31711;47.158;7.346;2023-04-03T18:01:44;5.90;99.90
45983;DHT22;31711;47.158;7.346;2023-04-03T18:04:11;5.90;99.90
45983;DHT22;31711;47.158;7.346;2023-04-03T18:06:41;5.90;99.90
45983;DHT22;31711;47.158;7.346;2023-04-03T18:09:13;5.80;99.90